Time;durP1;ratioP1;P1;durP2;ratioP2;P2;SDS_P1;SDS_P2;PMS_P1;PMS_P2;Temp;Humidity;BMP_temperature;BMP_pressure;BME280_temperature;BME280_humidity;BME280_pressure;Samples;Min_cycle;Max_cycle;Signal;HPM_P1;HPM_P2
2023/05/09 00:00:55;;;;;;;13.38;11.55;;;15.30;99.90;;;;;;4994859;28;20121;-64
2023/05/09 00:03:21;;;;;;;15.35;11.93;;;15.30;99.90;;;;;;4994814;28;20050;-64
2023/05/09 00:05:46;;;;;;;14.77;12.00;;;15.30;99.90;;;;;;4994894;28;20058;-64
2023/05/09 00:08:12;;;;;;;13.68;11.68;;;15.30;99.90;;;;;;4994832;28;20113;-64
2023/05/09 00:10:38;;;;;;;14.63;11.02;;;15.30;99.90;;;;;;4994827;28;20397;-64
2023/05/09 00:13:04;;;;;;;13.05;10.55;;;15.30;99.90;;;;;;4994708;28;20120;-64
2023/05/09 00:15:30;;;;;;;11.43;10.10;;;15.30;99.90;;;;;;4994685;28;20054;-64
2023/05/09 00:17:56;;;;;;;13.38;10.90;;;15.30;99.90;;;;;;4994698;28;20104;-64
2023/05/09 00:20:22;;;;;;;13.32;10.25;;;15.20;99.90;;;;;;4993663;28;20441;-64
2023/05/09 00:22:47;;;;;;;11.10;9.93;;;15.20;99.90;;;;;;4995403;28;20046;-64
2023/05/09 00:25:13;;;;;;;13.15;11.00;;;15.20;99.90;;;;;;4993879;28;20458;-65
2023/05/09 00:27:39;;;;;;;13.82;10.82;;;15.20;99.90;;;;;;4994532;28;20042;-64
2023/05/09 00:30:05;;;;;;;13.32;10.82;;;15.10;99.90;;;;;;4994070;28;20034;-64
2023/05/09 00:32:34;;;;;;;11.40;10.20;;;15.10;99.90;;;;;;4994634;28;20107;-64
2023/05/09 00:34:59;;;;;;;12.52;10.00;;;15.10;99.90;;;;;;4995007;28;20046;-64
2023/05/09 00:37:25;;;;;;;11.43;10.23;;;15.10;99.90;;;;;;4994449;28;20049;-64
2023/05/09 00:39:51;;;;;;;10.60;9.38;;;15.10;99.90;;;;;;4994263;28;20050;-65
2023/05/09 00:42:17;;;;;;;11.05;8.77;;;15.10;99.90;;;;;;4993467;28;20082;-64
2023/05/09 00:44:42;;;;;;;13.20;9.98;;;15.00;99.90;;;;;;4995158;28;20039;-64
2023/05/09 00:47:08;;;;;;;11.82;9.15;;;15.00;99.90;;;;;;4976900;28;20042;-64
2023/05/09 00:49:34;;;;;;;10.88;9.77;;;15.00;99.90;;;;;;4993935;28;20046;-65
2023/05/09 00:52:01;;;;;;;11.52;9.48;;;14.90;99.90;;;;;;4977370;28;20129;-64
2023/05/09 00:54:27;;;;;;;12.27;9.93;;;14.90;99.90;;;;;;4992827;28;20064;-64
2023/05/09 00:56:53;;;;;;;10.48;9.10;;;14.90;99.90;;;;;;4993017;28;20061;-65
2023/05/09 00:59:19;;;;;;;11.15;9.43;;;14.90;99.90;;;;;;4993418;28;20339;-64
2023/05/09 01:01:45;;;;;;;10.60;8.88;;;14.90;99.90;;;;;;4994070;28;20137;-64
2023/05/09 01:04:12;;;;;;;13.20;9.70;;;14.80;99.90;;;;;;4993638;28;20105;-64
2023/05/09 01:06:54;;;;;;;9.75;8.55;;;14.80;99.90;;;;;;4994099;28;20076;-64
2023/05/09 01:09:43;;;;;;;9.63;8.52;;;14.80;99.90;;;;;;4993208;28;20121;-65
2023/05/09 01:12:36;;;;;;;10.73;8.52;;;14.80;99.90;;;;;;4993899;28;20054;-64
2023/05/09 01:15:23;;;;;;;10.88;9.40;;;14.80;99.90;;;;;;4994914;28;20050;-64
2023/05/09 01:17:52;;;;;;;10.00;8.98;;;14.80;99.90;;;;;;4993749;28;20042;-64
2023/05/09 01:20:32;;;;;;;10.02;8.77;;;14.70;99.90;;;;;;4993879;28;20085;-63
2023/05/09 01:23:04;;;;;;;10.13;9.02;;;14.70;99.90;;;;;;4994808;28;20120;-64
2023/05/09 01:26:02;;;;;;;10.27;9.18;;;14.70;99.90;;;;;;4993955;28;20047;-64
2023/05/09 01:28:50;;;;;;;12.77;8.48;;;14.70;99.90;;;;;;4993183;28;20062;-64
2023/05/09 01:31:16;;;;;;;10.23;8.93;;;14.60;99.90;;;;;;4993937;28;20054;-64
2023/05/09 01:33:45;;;;;;;10.90;9.00;;;14.60;99.90;;;;;;4993827;28;20526;-64
2023/05/09 01:36:17;;;;;;;10.60;8.73;;;14.60;99.90;;;;;;4993783;28;20046;-64
2023/05/09 01:38:49;;;;;;;10.43;9.40;;;14.60;99.90;;;;;;4994120;28;20363;-64
2023/05/09 01:41:16;;;;;;;10.77;8.80;;;14.60;99.90;;;;;;4995830;28;20042;-64
2023/05/09 01:43:45;;;;;;;8.82;7.93;;;14.60;99.90;;;;;;4997465;28;20061;-64
2023/05/09 01:46:13;;;;;;;10.00;7.95;;;14.60;99.90;;;;;;4996250;28;20050;-64
2023/05/09 01:48:40;;;;;;;9.73;7.25;;;14.60;99.90;;;;;;4996178;28;20054;-64
2023/05/09 01:51:07;;;;;;;10.20;7.72;;;14.60;99.90;;;;;;4998136;28;20378;-64
2023/05/09 01:53:34;;;;;;;9.45;7.95;;;14.60;99.90;;;;;;4997285;28;20046;-64
2023/05/09 01:56:02;;;;;;;9.55;7.75;;;14.60;99.90;;;;;;4997085;28;20391;-64
2023/05/09 01:58:32;;;;;;;8.52;7.50;;;14.60;99.90;;;;;;4997188;28;20050;-64
2023/05/09 02:00:59;;;;;;;8.57;7.28;;;14.60;99.90;;;;;;4997570;28;20065;-64
2023/05/09 02:03:26;;;;;;;8.75;7.85;;;14.50;99.90;;;;;;4997308;28;20436;-63
2023/05/09 02:05:54;;;;;;;9.05;7.22;;;14.60;99.90;;;;;;4995957;28;20101;-64
2023/05/09 02:08:20;;;;;;;9.13;7.78;;;14.50;99.90;;;;;;4997581;28;20058;-64
2023/05/09 02:10:49;;;;;;;8.88;7.60;;;14.50;99.90;;;;;;4979934;28;20058;-64
2023/05/09 02:13:15;;;;;;;7.68;6.88;;;14.50;99.90;;;;;;4996617;28;20530;-64
2023/05/09 02:15:42;;;;;;;8.82;7.75;;;14.50;99.90;;;;;;4996644;28;20490;-64
2023/05/09 02:18:08;;;;;;;10.52;7.13;;;14.50;99.90;;;;;;4996121;28;20477;-64
2023/05/09 02:20:34;;;;;;;11.07;8.13;;;14.50;99.90;;;;;;4995553;28;20038;-64
2023/05/09 02:23:00;;;;;;;10.55;8.38;;;14.50;99.90;;;;;;4995544;28;20057;-64
2023/05/09 02:25:27;;;;;;;9.05;7.95;;;14.50;99.90;;;;;;4997529;28;20167;-64
2023/05/09 02:27:55;;;;;;;9.90;7.60;;;14.50;99.90;;;;;;4996683;28;20101;-64
2023/05/09 02:30:24;;;;;;;8.85;7.55;;;14.40;99.90;;;;;;4996642;28;20050;-64
2023/05/09 02:32:55;;;;;;;9.65;8.13;;;14.40;99.90;;;;;;4996765;28;20445;-64
2023/05/09 02:35:23;;;;;;;8.98;7.75;;;14.40;99.90;;;;;;4996646;28;20054;-64
2023/05/09 02:37:51;;;;;;;10.82;7.85;;;14.40;99.90;;;;;;4996490;28;20046;-64
2023/05/09 02:40:18;;;;;;;9.00;7.38;;;14.40;99.90;;;;;;4979115;28;20057;-64
2023/05/09 02:42:44;;;;;;;9.27;8.07;;;14.40;99.90;;;;;;4996399;28;20102;-64
2023/05/09 02:45:10;;;;;;;8.55;7.65;;;14.40;99.90;;;;;;4995381;28;20050;-64
2023/05/09 02:47:36;;;;;;;9.55;8.20;;;14.40;99.90;;;;;;4995609;28;20046;-64
2023/05/09 02:50:02;;;;;;;8.38;7.40;;;14.40;99.90;;;;;;4996790;28;20050;-64
2023/05/09 02:52:28;;;;;;;11.02;7.72;;;14.40;99.90;;;;;;4995898;28;20046;-64
2023/05/09 02:54:54;;;;;;;9.35;7.97;;;14.40;99.90;;;;;;4996007;28;20061;-64
2023/05/09 02:57:20;;;;;;;10.30;8.15;;;14.40;99.90;;;;;;4996199;28;20054;-64
2023/05/09 02:59:45;;;;;;;10.43;8.45;;;14.40;99.90;;;;;;4962735;28;20042;-64
2023/05/09 03:02:11;;;;;;;11.18;8.30;;;14.40;99.90;;;;;;4996463;28;20386;-64
2023/05/09 03:04:37;;;;;;;10.18;8.13;;;14.40;99.90;;;;;;4995999;28;20046;-64
2023/05/09 03:07:03;;;;;;;11.13;8.25;;;14.40;99.90;;;;;;4995308;28;20042;-63
2023/05/09 03:09:29;;;;;;;11.00;8.77;;;14.40;99.90;;;;;;4995958;28;20034;-64
2023/05/09 03:11:55;;;;;;;11.70;9.25;;;14.40;99.90;;;;;;4994640;28;20395;-64
2023/05/09 03:14:21;;;;;;;11.48;9.32;;;14.40;99.90;;;;;;4996294;28;20387;-64
2023/05/09 03:16:47;;;;;;;9.88;8.52;;;14.40;99.90;;;;;;4995442;28;20049;-64
2023/05/09 03:19:13;;;;;;;12.57;8.95;;;14.40;99.90;;;;;;4994670;28;20089;-64
2023/05/09 03:21:38;;;;;;;10.75;8.68;;;14.40;99.90;;;;;;4995709;28;20094;-64
2023/05/09 03:24:06;;;;;;;11.57;8.43;;;15.10;99.90;;;;;;4996394;28;20125;-63
2023/05/09 03:26:34;;;;;;;11.25;9.10;;;14.40;99.90;;;;;;4995532;28;20592;-63
2023/05/09 03:29:00;;;;;;;11.20;8.35;;;14.40;99.90;;;;;;4996317;28;20050;-63
2023/05/09 03:31:26;;;;;;;13.20;9.20;;;14.40;99.90;;;;;;4995528;28;20058;-63
2023/05/09 03:33:52;;;;;;;10.85;8.20;;;14.30;99.90;;;;;;4995407;28;20498;-63
2023/05/09 03:36:17;;;;;;;9.90;8.30;;;14.30;99.90;;;;;;4995416;28;20089;-63
2023/05/09 03:38:43;;;;;;;9.63;8.63;;;14.30;99.90;;;;;;4995347;28;20089;-63
2023/05/09 03:41:09;;;;;;;11.18;9.32;;;14.30;99.90;;;;;;4996006;28;20429;-64
2023/05/09 03:43:35;;;;;;;12.27;9.15;;;14.30;99.90;;;;;;4995246;28;20092;-64
2023/05/09 03:46:00;;;;;;;12.35;9.43;;;14.30;99.90;;;;;;4995132;28;20482;-64
2023/05/09 03:48:26;;;;;;;10.77;9.32;;;14.30;99.90;;;;;;4994126;28;20054;-64
2023/05/09 03:50:52;;;;;;;13.30;9.70;;;14.30;99.90;;;;;;4993856;28;20054;-63
2023/05/09 03:53:19;;;;;;;11.57;8.93;;;14.30;99.90;;;;;;4995083;28;20049;-64
2023/05/09 03:55:45;;;;;;;13.40;11.07;;;14.40;99.90;;;;;;4995159;28;20077;-64
2023/05/09 03:58:11;;;;;;;13.20;10.20;;;14.30;99.90;;;;;;4995035;28;20046;-64
2023/05/09 04:00:37;;;;;;;12.75;9.38;;;14.30;99.90;;;;;;4994880;28;20108;-64
2023/05/09 04:03:03;;;;;;;11.55;9.15;;;14.30;99.90;;;;;;4994506;28;20474;-64
2023/05/09 04:05:29;;;;;;;12.43;9.63;;;14.30;99.90;;;;;;4994844;28;20409;-64
2023/05/09 04:07:55;;;;;;;11.68;8.70;;;14.30;99.90;;;;;;4994872;28;20089;-64
2023/05/09 04:10:20;;;;;;;10.75;9.35;;;14.30;99.90;;;;;;4994839;28;20042;-64
2023/05/09 04:12:46;;;;;;;12.32;10.15;;;14.30;99.90;;;;;;4994821;28;20124;-64
2023/05/09 04:15:12;;;;;;;11.27;9.32;;;14.30;99.90;;;;;;4994711;28;20050;-64
2023/05/09 04:17:37;;;;;;;12.77;9.85;;;14.30;99.90;;;;;;4994266;28;20096;-64
2023/05/09 04:20:05;;;;;;;13.00;9.75;;;14.30;99.90;;;;;;4994600;28;20081;-63
2023/05/09 04:22:31;;;;;;;12.25;9.45;;;14.30;99.90;;;;;;4994645;28;20126;-63
2023/05/09 04:24:56;;;;;;;12.27;9.88;;;14.30;99.90;;;;;;4994613;28;20049;-63
2023/05/09 04:27:22;;;;;;;12.27;9.50;;;14.30;99.90;;;;;;4977680;28;20046;-63
2023/05/09 04:29:48;;;;;;;13.25;10.68;;;14.30;99.90;;;;;;4993574;28;20050;-63
2023/05/09 04:32:14;;;;;;;14.70;10.75;;;14.30;99.90;;;;;;4994478;28;20097;-63
2023/05/09 04:34:40;;;;;;;14.77;11.85;;;14.30;99.90;;;;;;4994176;28;20051;-63
2023/05/09 04:37:05;;;;;;;12.43;10.20;;;14.30;99.90;;;;;;4994416;28;20054;-63
2023/05/09 04:39:31;;;;;;;14.48;10.82;;;14.30;99.90;;;;;;4994901;28;20046;-63
2023/05/09 04:41:57;;;;;;;13.35;10.65;;;14.40;99.90;;;;;;4994377;28;20050;-63
2023/05/09 04:44:23;;;;;;;14.00;11.13;;;14.30;99.90;;;;;;4993732;28;20463;-63
2023/05/09 04:46:49;;;;;;;13.93;10.20;;;14.40;99.90;;;;;;4994829;28;20418;-63
2023/05/09 04:49:15;;;;;;;14.52;11.07;;;14.40;99.90;;;;;;4994873;28;20054;-63
2023/05/09 04:51:41;;;;;;;13.15;10.60;;;14.40;99.90;;;;;;4994551;28;20368;-63
2023/05/09 04:54:06;;;;;;;13.90;10.73;;;14.40;99.90;;;;;;4994070;28;20050;-63
2023/05/09 04:56:32;;;;;;;14.82;11.73;;;14.40;99.90;;;;;;4994280;28;20160;-63
2023/05/09 04:58:58;;;;;;;13.85;11.30;;;14.50;99.90;;;;;;4993045;28;20054;-63
2023/05/09 05:01:24;;;;;;;14.52;11.00;;;14.50;99.90;;;;;;4993121;28;20046;-63
2023/05/09 05:03:49;;;;;;;12.30;10.90;;;14.50;99.90;;;;;;4994057;28;20128;-63
2023/05/09 05:06:15;;;;;;;14.98;11.02;;;14.50;99.90;;;;;;4994589;28;20373;-63
2023/05/09 05:08:40;;;;;;;12.65;10.40;;;14.50;99.90;;;;;;4994093;28;20054;-63
2023/05/09 05:11:06;;;;;;;14.88;11.13;;;14.50;99.90;;;;;;4994016;28;20046;-63
2023/05/09 05:13:32;;;;;;;14.70;11.68;;;14.50;99.90;;;;;;4994267;28;20137;-63
2023/05/09 05:15:58;;;;;;;15.25;11.65;;;14.50;99.90;;;;;;4996677;28;20501;-63
2023/05/09 05:18:23;;;;;;;15.10;10.95;;;14.50;99.90;;;;;;4996799;28;20077;-63
2023/05/09 05:20:49;;;;;;;14.38;11.63;;;14.50;99.90;;;;;;4996650;28;20072;-63
2023/05/09 05:23:15;;;;;;;15.48;12.13;;;14.60;99.90;;;;;;4997900;28;20493;-63
2023/05/09 05:25:40;;;;;;;14.38;12.13;;;14.60;99.90;;;;;;4998049;28;20061;-63
2023/05/09 05:28:06;;;;;;;15.10;11.68;;;14.60;99.90;;;;;;4997790;28;20054;-63
2023/05/09 05:30:31;;;;;;;17.08;12.20;;;14.60;99.90;;;;;;4997734;28;20561;-63
2023/05/09 05:32:57;;;;;;;16.60;12.65;;;14.60;99.90;;;;;;4997614;28;20068;-63
2023/05/09 05:35:23;;;;;;;16.23;13.32;;;14.60;99.90;;;;;;4998438;28;20125;-63
2023/05/09 05:37:49;;;;;;;17.17;12.80;;;14.60;99.90;;;;;;4997902;28;20194;-63
2023/05/09 05:40:15;;;;;;;16.73;11.90;;;14.70;99.90;;;;;;4997511;28;20496;-63
2023/05/09 05:42:41;;;;;;;18.20;13.25;;;14.70;99.90;;;;;;4964325;28;20133;-64
2023/05/09 05:45:07;;;;;;;16.30;13.30;;;14.80;99.90;;;;;;4997538;28;20050;-63
2023/05/09 05:47:34;;;;;;;16.98;13.60;;;14.80;99.90;;;;;;4996277;28;20057;-63
2023/05/09 05:50:01;;;;;;;17.33;13.65;;;14.90;99.90;;;;;;4998162;28;20343;-63
2023/05/09 05:52:27;;;;;;;17.30;12.93;;;14.90;99.90;;;;;;4997371;28;20046;-64
2023/05/09 05:54:53;;;;;;;16.92;13.85;;;14.90;99.90;;;;;;4996109;28;20130;-63
2023/05/09 05:57:19;;;;;;;17.25;13.50;;;15.00;99.90;;;;;;4996128;28;20050;-63
2023/05/09 05:59:48;;;;;;;16.40;13.25;;;15.00;99.90;;;;;;4997170;28;20385;-63
2023/05/09 06:02:15;;;;;;;19.80;13.88;;;15.00;99.90;;;;;;4997914;28;20078;-63
2023/05/09 06:04:41;;;;;;;17.05;13.35;;;15.00;99.90;;;;;;4997321;28;20046;-63
2023/05/09 06:07:08;;;;;;;17.40;13.68;;;15.00;99.90;;;;;;4997143;28;20108;-63
2023/05/09 06:09:34;;;;;;;18.38;14.18;;;15.10;99.90;;;;;;4995877;28;20049;-63
2023/05/09 06:11:59;;;;;;;17.50;13.65;;;15.10;99.90;;;;;;4996989;28;20043;-63
2023/05/09 06:14:25;;;;;;;19.45;14.15;;;15.10;99.90;;;;;;4996918;28;20050;-64
2023/05/09 06:16:52;;;;;;;17.63;13.20;;;15.10;99.90;;;;;;4997043;28;20054;-64
2023/05/09 06:19:17;;;;;;;18.08;14.25;;;15.10;99.90;;;;;;4996748;28;20486;-64
2023/05/09 06:21:43;;;;;;;18.02;13.90;;;15.10;99.90;;;;;;4997413;28;20061;-64
2023/05/09 06:24:09;;;;;;;20.40;15.38;;;15.10;99.90;;;;;;4996774;28;20058;-64
2023/05/09 06:26:35;;;;;;;17.75;14.50;;;15.20;99.90;;;;;;4996343;28;20046;-64
2023/05/09 06:29:02;;;;;;;17.80;13.77;;;15.20;99.90;;;;;;4996682;28;20047;-64
2023/05/09 06:31:28;;;;;;;20.10;15.40;;;15.20;99.90;;;;;;4996670;28;20081;-64
2023/05/09 06:33:54;;;;;;;17.35;13.60;;;15.20;99.90;;;;;;4996556;28;20129;-64
2023/05/09 06:36:19;;;;;;;19.23;14.68;;;15.20;99.90;;;;;;4995856;28;20185;-64
2023/05/09 06:38:45;;;;;;;17.50;14.27;;;15.20;99.90;;;;;;4995567;28;20486;-64
2023/05/09 06:41:11;;;;;;;16.50;13.52;;;15.30;99.90;;;;;;4996344;28;20475;-64
2023/05/09 06:43:36;;;;;;;20.00;15.00;;;15.30;99.90;;;;;;4995236;28;20057;-64
2023/05/09 06:46:02;;;;;;;19.25;14.63;;;15.30;99.90;;;;;;4995192;28;20046;-64
2023/05/09 06:48:28;;;;;;;19.23;14.43;;;15.30;99.90;;;;;;4996431;28;20404;-64
2023/05/09 06:50:54;;;;;;;18.83;13.82;;;15.30;99.90;;;;;;4996327;28;20088;-64
2023/05/09 06:53:19;;;;;;;18.35;14.38;;;15.40;99.90;;;;;;4996226;28;20046;-64
2023/05/09 06:55:45;;;;;;;17.42;13.98;;;15.40;99.90;;;;;;4996555;28;20054;-64
2023/05/09 06:58:11;;;;;;;19.65;14.90;;;15.40;99.90;;;;;;4996134;28;20438;-64
2023/05/09 07:00:37;;;;;;;16.00;14.23;;;15.40;99.90;;;;;;4996587;28;20462;-64
2023/05/09 07:03:03;;;;;;;19.92;15.13;;;15.40;99.90;;;;;;4996753;28;20104;-64
2023/05/09 07:05:29;;;;;;;18.60;15.27;;;15.50;99.90;;;;;;4978956;28;20050;-64
2023/05/09 07:07:55;;;;;;;19.95;15.20;;;15.60;99.90;;;;;;4996127;28;20050;-64
2023/05/09 07:10:21;;;;;;;18.30;14.35;;;15.60;99.90;;;;;;4995347;28;20116;-65
2023/05/09 07:12:47;;;;;;;19.08;14.25;;;15.60;99.90;;;;;;4994771;28;20042;-65
2023/05/09 07:15:13;;;;;;;20.20;14.98;;;15.70;99.90;;;;;;4995970;28;20049;-64
2023/05/09 07:17:38;;;;;;;20.50;14.82;;;15.80;99.90;;;;;;4995830;28;20483;-64
2023/05/09 07:20:05;;;;;;;20.70;14.52;;;15.80;99.90;;;;;;4994445;28;20046;-64
2023/05/09 07:22:31;;;;;;;18.80;15.23;;;15.90;99.90;;;;;;4996482;28;20072;-64
2023/05/09 07:24:57;;;;;;;20.35;15.60;;;16.00;99.90;;;;;;4995706;28;20053;-65
2023/05/09 07:27:23;;;;;;;20.77;15.80;;;16.00;99.90;;;;;;4994399;28;20434;-65
2023/05/09 07:29:51;;;;;;;18.67;14.80;;;16.00;99.90;;;;;;4995657;28;20054;-65
2023/05/09 07:32:18;;;;;;;19.15;15.57;;;16.10;99.90;;;;;;4995507;28;20094;-65
2023/05/09 07:34:44;;;;;;;18.27;15.23;;;16.10;99.90;;;;;;4995519;28;20046;-64
2023/05/09 07:37:09;;;;;;;19.98;16.10;;;16.10;99.90;;;;;;4995553;28;20050;-65
2023/05/09 07:39:35;;;;;;;19.27;15.13;;;16.10;99.90;;;;;;4995219;28;20050;-65
2023/05/09 07:42:01;;;;;;;19.40;15.40;;;16.10;99.90;;;;;;4995484;28;20449;-66
2023/05/09 07:44:26;;;;;;;17.77;14.43;;;16.10;99.90;;;;;;4995971;28;20046;-65
2023/05/09 07:46:54;;;;;;;22.58;15.90;;;16.10;99.90;;;;;;4995921;28;20058;-65
2023/05/09 07:49:20;;;;;;;20.10;15.73;;;16.10;99.90;;;;;;4995884;28;20077;-65
2023/05/09 07:51:46;;;;;;;22.65;16.42;;;16.10;99.90;;;;;;4996224;28;20497;-64
2023/05/09 07:54:12;;;;;;;23.85;17.23;;;16.10;99.90;;;;;;4995318;28;20054;-65
2023/05/09 07:56:38;;;;;;;21.98;16.48;;;16.10;99.90;;;;;;4995202;28;20474;-65
2023/05/09 07:59:04;;;;;;;20.60;16.10;;;16.00;99.90;;;;;;4995439;28;20045;-65
2023/05/09 08:01:29;;;;;;;20.95;15.50;;;16.00;99.90;;;;;;4995530;28;20177;-65
2023/05/09 08:03:55;;;;;;;22.10;16.65;;;16.00;99.90;;;;;;4995529;28;20451;-65
2023/05/09 08:06:21;;;;;;;20.10;16.58;;;16.00;99.90;;;;;;4995323;28;20046;-65
2023/05/09 08:08:47;;;;;;;24.30;17.80;;;16.00;99.90;;;;;;4994971;28;20054;-65
2023/05/09 08:11:12;;;;;;;22.50;17.58;;;16.00;99.90;;;;;;4994974;28;20046;-65
2023/05/09 08:13:38;;;;;;;23.15;16.98;;;16.00;99.90;;;;;;4994561;28;20046;-65
2023/05/09 08:16:04;;;;;;;23.40;18.00;;;16.00;99.90;;;;;;4994807;28;20100;-65
2023/05/09 08:18:30;;;;;;;24.35;17.98;;;16.00;99.90;;;;;;4994704;28;20104;-67
2023/05/09 08:20:58;;;;;;;26.92;18.83;;;16.00;99.90;;;;;;4994745;28;20054;-65
2023/05/09 08:23:24;;;;;;;29.23;19.98;;;16.00;99.90;;;;;;4993982;28;20085;-65
2023/05/09 08:25:53;;;;;;;27.38;19.75;;;16.10;99.90;;;;;;4994542;28;20073;-65
2023/05/09 08:28:20;;;;;;;27.77;19.02;;;16.10;99.90;;;;;;4995314;28;20384;-65
2023/05/09 08:30:46;;;;;;;29.83;21.15;;;16.10;99.90;;;;;;4993440;28;20058;-66
2023/05/09 08:33:12;;;;;;;32.53;21.08;;;16.10;99.90;;;;;;4994310;28;20101;-65
2023/05/09 08:35:38;;;;;;;35.20;23.27;;;16.10;99.90;;;;;;4995014;28;20137;-65
2023/05/09 08:38:03;;;;;;;37.85;22.27;;;16.10;99.90;;;;;;4994074;28;20120;-65
2023/05/09 08:40:29;;;;;;;36.13;23.83;;;16.10;99.90;;;;;;4976716;28;20039;-65
2023/05/09 08:42:55;;;;;;;37.13;23.42;;;16.10;99.90;;;;;;4994337;28;20096;-66
2023/05/09 08:45:26;;;;;;;39.17;24.55;;;16.00;99.90;;;;;;4994083;28;20061;-65
2023/05/09 08:47:52;;;;;;;41.40;25.95;;;16.00;99.90;;;;;;4994196;28;20054;-65
2023/05/09 08:50:19;;;;;;;43.90;25.77;;;16.10;99.90;;;;;;4992768;28;20050;-65
2023/05/09 08:52:45;;;;;;;42.30;25.60;;;16.00;99.90;;;;;;4993917;28;20482;-65
2023/05/09 08:55:11;;;;;;;44.20;25.20;;;16.10;99.90;;;;;;4993972;28;20058;-65
2023/05/09 08:57:37;;;;;;;46.28;26.83;;;16.10;99.90;;;;;;4994795;28;20058;-65
2023/05/09 09:00:10;;;;;;;45.30;26.08;;;16.10;99.90;;;;;;4994165;28;20054;-65
2023/05/09 09:02:39;;;;;;;40.90;26.13;;;16.20;99.90;;;;;;4993251;28;20054;-66
2023/05/09 09:05:06;;;;;;;40.47;25.13;;;16.20;99.90;;;;;;4994108;28;20057;-66
2023/05/09 09:07:35;;;;;;;43.78;26.55;;;16.30;99.90;;;;;;4994687;28;20050;-65
2023/05/09 09:10:02;;;;;;;37.13;24.55;;;16.30;99.90;;;;;;4994372;28;20053;-65
2023/05/09 09:12:28;;;;;;;40.17;25.30;;;16.40;99.90;;;;;;4993104;28;20126;-66
2023/05/09 09:14:59;;;;;;;41.28;24.58;;;16.50;99.90;;;;;;4994047;28;20435;-65
2023/05/09 09:17:27;;;;;;;41.97;25.10;;;16.60;99.90;;;;;;4992924;28;20043;-66
2023/05/09 09:19:58;;;;;;;41.45;24.83;;;16.80;99.90;;;;;;4992762;28;20129;-66
2023/05/09 09:22:31;;;;;;;44.08;25.08;;;16.90;99.90;;;;;;4994592;28;20121;-66
2023/05/09 09:25:01;;;;;;;44.65;25.55;;;17.00;99.90;;;;;;4994309;28;20054;-65
2023/05/09 09:27:27;;;;;;;43.33;25.88;;;17.10;99.90;;;;;;4993914;28;20057;-66
2023/05/09 09:29:53;;;;;;;43.45;26.88;;;17.30;99.90;;;;;;4993999;28;20046;-65
2023/05/09 09:32:19;;;;;;;41.80;25.17;;;17.40;99.90;;;;;;4993934;28;20478;-65
2023/05/09 09:34:49;;;;;;;42.40;25.17;;;17.50;99.90;;;;;;4993545;28;20046;-65
2023/05/09 09:37:23;;;;;;;41.75;24.67;;;17.60;99.90;;;;;;4994727;28;20115;-65
2023/05/09 09:39:54;;;;;;;41.53;24.98;;;17.70;99.90;;;;;;4992783;28;20624;-65
2023/05/09 09:42:20;;;;;;;41.40;23.58;;;17.70;99.90;;;;;;4993872;28;20417;-65
2023/05/09 09:44:55;;;;;;;32.70;22.35;;;17.70;99.90;;;;;;4993783;28;20129;-66
2023/05/09 09:47:30;;;;;;;35.97;23.40;;;17.70;99.90;;;;;;4993728;28;20054;-66
2023/05/09 09:49:56;;;;;;;35.78;23.27;;;17.70;99.90;;;;;;4993580;28;20092;-65
2023/05/09 09:52:24;;;;;;;37.78;23.95;;;17.70;99.90;;;;;;4994327;28;20038;-66
2023/05/09 09:54:49;;;;;;;39.05;22.90;;;17.70;99.90;;;;;;4993737;28;20109;-66
2023/05/09 09:57:35;;;;;;;39.30;23.20;;;17.60;99.90;;;;;;4993983;28;20058;-66
2023/05/09 10:00:04;;;;;;;35.55;23.27;;;17.60;99.90;;;;;;4993721;28;20133;-65
2023/05/09 10:02:30;;;;;;;38.75;24.63;;;17.60;99.90;;;;;;4995120;28;20093;-66
2023/05/09 10:04:57;;;;;;;39.03;23.92;;;17.60;99.90;;;;;;4997077;28;20054;-65
2023/05/09 10:07:23;;;;;;;36.53;24.15;;;17.50;99.90;;;;;;4996473;28;20056;-66
2023/05/09 10:09:48;;;;;;;38.85;24.52;;;17.50;99.90;;;;;;4996323;28;20050;-66
2023/05/09 10:12:18;;;;;;;38.25;23.52;;;17.50;99.90;;;;;;4997041;28;20046;-66
2023/05/09 10:14:44;;;;;;;35.92;23.77;;;17.40;99.90;;;;;;4996933;28;20494;-66
2023/05/09 10:17:13;;;;;;;39.17;24.25;;;17.40;99.90;;;;;;4996932;28;20089;-66
2023/05/09 10:19:45;;;;;;;36.05;22.63;;;17.40;99.90;;;;;;4996803;28;20398;-66
2023/05/09 10:22:13;;;;;;;37.25;23.88;;;17.30;99.90;;;;;;4996169;28;20559;-66
2023/05/09 10:25:00;;;;;;;38.63;23.80;;;17.30;99.90;;;;;;4996692;28;20057;-66
2023/05/09 10:27:27;;;;;;;36.50;23.85;;;17.30;99.90;;;;;;4996124;28;20050;-66
2023/05/09 10:30:14;;;;;;;35.88;23.88;;;17.20;99.90;;;;;;4996732;28;20080;-66
2023/05/09 10:33:22;;;;;;;36.63;23.63;;;17.20;99.90;;;;;;4995963;28;20138;-66
2023/05/09 10:35:49;;;;;;;36.45;23.50;;;17.30;99.90;;;;;;4939373;29;20114;-66
2023/05/09 10:38:15;;;;;;;41.42;25.00;;;17.30;99.90;;;;;;4955707;29;20055;-66
2023/05/09 10:40:45;;;;;;;39.85;24.27;;;17.30;99.90;;;;;;4976728;28;20391;-66
2023/05/09 10:43:11;;;;;;;38.55;24.67;;;17.40;99.90;;;;;;4995914;28;20367;-66
2023/05/09 10:45:37;;;;;;;39.42;25.13;;;17.50;99.90;;;;;;4996842;28;20052;-66
2023/05/09 10:48:07;;;;;;;38.28;24.45;;;17.60;99.90;;;;;;4996256;28;20439;-66
2023/05/09 10:50:35;;;;;;;40.15;25.48;;;17.70;99.90;;;;;;4996326;28;20380;-66
2023/05/09 10:53:15;;;;;;;41.17;25.08;;;17.70;99.90;;;;;;4997006;28;20057;-66
2023/05/09 10:55:55;;;;;;;40.08;24.38;;;17.70;99.90;;;;;;4995943;28;20069;-66
2023/05/09 10:58:27;;;;;;;43.60;26.08;;;17.70;99.90;;;;;;4995841;28;20051;-66
2023/05/09 11:00:58;;;;;;;39.92;25.05;;;17.60;99.90;;;;;;4996849;28;20042;-66
2023/05/09 11:03:25;;;;;;;40.55;26.30;;;17.60;99.90;;;;;;4996401;28;20063;-66
2023/05/09 11:05:53;;;;;;;43.72;25.60;;;17.60;99.90;;;;;;4994720;28;20090;-66
2023/05/09 11:08:22;;;;;;;46.35;26.73;;;17.60;99.90;;;;;;4995923;28;20046;-66
2023/05/09 11:10:48;;;;;;;41.88;24.98;;;17.60;99.90;;;;;;4995880;28;20071;-66
2023/05/09 11:13:19;;;;;;;43.58;25.35;;;17.60;99.90;;;;;;4994698;28;20482;-67
2023/05/09 11:16:04;;;;;;;40.90;25.60;;;17.60;99.90;;;;;;4996000;28;20054;-67
2023/05/09 11:18:31;;;;;;;44.28;25.73;;;17.00;99.90;;;;;;4996438;28;20046;-66
2023/05/09 11:20:57;;;;;;;44.00;26.15;;;17.60;99.90;;;;;;4995998;28;20046;-66
2023/05/09 11:23:29;;;;;;;43.67;25.98;;;17.60;99.90;;;;;;4995466;28;20054;-66
2023/05/09 11:26:07;;;;;;;47.97;26.75;;;17.70;99.90;;;;;;4996076;28;20049;-67
2023/05/09 11:28:35;;;;;;;48.75;27.13;;;17.70;99.90;;;;;;4995560;28;20398;-66
2023/05/09 11:31:15;;;;;;;46.33;26.48;;;17.70;99.90;;;;;;4995450;28;20035;-67
2023/05/09 11:33:46;;;;;;;46.45;27.23;;;17.70;99.90;;;;;;4995958;28;20050;-66
2023/05/09 11:36:18;;;;;;;46.55;27.60;;;17.70;99.90;;;;;;4995638;28;20089;-66
2023/05/09 11:38:47;;;;;;;;;;;17.70;99.90;;;;;;4994548;28;20054;-67
2023/05/09 11:41:13;;;;;;;47.47;27.42;;;17.70;99.90;;;;;;4995175;28;20063;-67
2023/05/09 11:43:41;;;;;;;46.00;27.95;;;17.70;99.90;;;;;;4995657;28;20188;-67
2023/05/09 11:46:07;;;;;;;46.42;26.92;;;17.70;99.90;;;;;;4995639;28;20108;-67
2023/05/09 11:48:38;;;;;;;44.92;26.98;;;17.80;99.90;;;;;;4995234;28;20478;-67
2023/05/09 11:51:04;;;;;;;45.47;27.58;;;17.80;99.90;;;;;;4995130;28;20054;-68
2023/05/09 11:53:30;;;;;;;43.58;28.00;;;17.80;99.90;;;;;;4994754;28;20038;-67
2023/05/09 11:55:56;;;;;;;50.33;27.98;;;17.80;99.90;;;;;;4995053;28;20058;-66
2023/05/09 11:58:21;;;;;;;42.85;25.55;;;17.70;99.90;;;;;;4993782;28;20061;-66
2023/05/09 12:00:48;;;;;;;44.85;26.52;;;17.70;99.90;;;;;;4993691;28;20046;-66
2023/05/09 12:03:14;;;;;;;51.63;29.00;;;17.70;99.90;;;;;;4994783;28;20066;-66
2023/05/09 12:05:41;;;;;;;52.42;28.45;;;17.80;99.90;;;;;;4994863;28;20383;-66
2023/05/09 12:08:08;;;;;;;51.88;28.33;;;17.80;99.90;;;;;;4993647;28;20065;-66
2023/05/09 12:10:37;;;;;;;48.90;29.15;;;17.80;99.90;;;;;;4994462;28;20508;-66
2023/05/09 12:13:03;;;;;;;50.10;29.17;;;17.90;99.90;;;;;;4994669;28;20046;-66
2023/05/09 12:15:34;;;;;;;47.17;28.00;;;18.00;99.90;;;;;;4994655;28;20056;-66
2023/05/09 12:18:04;;;;;;;46.25;28.13;;;18.10;99.90;;;;;;4993585;28;20042;-66
2023/05/09 12:20:44;;;;;;;50.22;29.33;;;18.20;99.90;;;;;;4994534;28;20043;-66
2023/05/09 12:23:13;;;;;;;48.40;27.83;;;18.40;99.90;;;;;;4994505;28;20441;-67
2023/05/09 12:25:45;;;;;;;49.05;29.13;;;18.50;99.90;;;;;;4993916;28;20042;-66
2023/05/09 12:28:10;;;;;;;46.92;28.05;;;18.50;99.90;;;;;;4977326;28;20093;-66
2023/05/09 12:30:36;;;;;;;47.10;28.05;;;18.60;99.90;;;;;;4994497;28;20077;-66
2023/05/09 12:33:02;;;;;;;49.70;28.58;;;18.60;99.90;;;;;;4994438;28;20046;-66